sensor_id;sensor_type;location;lat;lon;timestamp;pressure;altitude;pressure_sealevel;temperature;humidity
79331;BME280;68797;49.782;19.054;2024-03-08T00:02:10;97561.66;;;1.84;95.90
79331;BME280;68797;49.782;19.054;2024-03-08T00:04:38;97567.84;;;1.95;96.15
79331;BME280;68797;49.782;19.054;2024-03-08T00:07:07;97572.19;;;1.97;96.74
79331;BME280;68797;49.782;19.054;2024-03-08T00:09:36;97565.22;;;1.93;96.91
79331;BME280;68797;49.782;19.054;2024-03-08T00:12:03;97565.28;;;2.01;95.23
79331;BME280;68797;49.782;19.054;2024-03-08T00:14:32;97564.34;;;1.94;97.15
79331;BME280;68797;49.782;19.054;2024-03-08T00:17:03;97546.88;;;1.90;97.87
79331;BME280;68797;49.782;19.054;2024-03-08T00:19:36;97566.00;;;1.80;96.23
79331;BME280;68797;49.782;19.054;2024-03-08T00:22:08;97566.81;;;1.74;96.82
79331;BME280;68797;49.782;19.054;2024-03-08T00:24:40;97558.22;;;1.91;96.44
79331;BME280;68797;49.782;19.054;2024-03-08T00:27:08;97559.03;;;1.84;95.52
79331;BME280;68797;49.782;19.054;2024-03-08T00:29:38;97557.38;;;1.96;97.05
79331;BME280;68797;49.782;19.054;2024-03-08T00:32:06;97559.97;;;1.90;97.36
79331;BME280;68797;49.782;19.054;2024-03-08T00:34:42;97559.97;;;1.95;96.45
79331;BME280;68797;49.782;19.054;2024-03-08T00:37:11;97546.91;;;1.95;96.55
79331;BME280;68797;49.782;19.054;2024-03-08T00:39:40;97540.81;;;1.97;96.18
79331;BME280;68797;49.782;19.054;2024-03-08T00:42:10;97549.53;;;1.98;96.65
79331;BME280;68797;49.782;19.054;2024-03-08T00:44:37;97546.91;;;1.99;97.78
79331;BME280;68797;49.782;19.054;2024-03-08T00:47:05;97535.56;;;1.93;98.39
79331;BME280;68797;49.782;19.054;2024-03-08T00:49:35;97546.03;;;1.94;97.96
79331;BME280;68797;49.782;19.054;2024-03-08T00:52:06;97542.59;;;2.03;99.52
79331;BME280;68797;49.782;19.054;2024-03-08T00:54:34;97539.06;;;1.95;97.34
79331;BME280;68797;49.782;19.054;2024-03-08T00:57:04;97539.03;;;1.90;94.96
79331;BME280;68797;49.782;19.054;2024-03-08T00:59:34;97531.25;;;2.01;96.73
79331;BME280;68797;49.782;19.054;2024-03-08T01:02:01;97529.47;;;1.98;97.66
79331;BME280;68797;49.782;19.054;2024-03-08T01:04:32;97529.44;;;1.89;96.43
79331;BME280;68797;49.782;19.054;2024-03-08T01:07:02;97522.41;;;1.87;97.22
79331;BME280;68797;49.782;19.054;2024-03-08T01:09:30;97514.56;;;1.88;96.38
79331;BME280;68797;49.782;19.054;2024-03-08T01:11:58;97525.91;;;1.86;97.00
79331;BME280;68797;49.782;19.054;2024-03-08T01:14:32;97519.78;;;1.84;99.19
79331;BME280;68797;49.782;19.054;2024-03-08T01:17:04;97516.34;;;1.89;97.42
79331;BME280;68797;49.782;19.054;2024-03-08T01:19:34;97524.16;;;1.86;98.89
79331;BME280;68797;49.782;19.054;2024-03-08T01:22:02;97511.09;;;1.88;100.00
79331;BME280;68797;49.782;19.054;2024-03-08T01:24:37;97517.25;;;1.94;99.47
79331;BME280;68797;49.782;19.054;2024-03-08T01:27:05;97504.97;;;1.84;98.52
79331;BME280;68797;49.782;19.054;2024-03-08T01:29:33;97512.88;;;1.92;97.80
79331;BME280;68797;49.782;19.054;2024-03-08T01:32:02;97502.41;;;1.90;98.86
79331;BME280;68797;49.782;19.054;2024-03-08T01:34:31;97513.75;;;1.95;97.81
79331;BME280;68797;49.782;19.054;2024-03-08T01:37:01;97517.25;;;1.97;97.54
79331;BME280;68797;49.782;19.054;2024-03-08T01:39:29;97498.94;;;1.94;98.52
79331;BME280;68797;49.782;19.054;2024-03-08T01:41:55;97498.84;;;1.81;98.56
79331;BME280;68797;49.782;19.054;2024-03-08T01:44:22;97505.03;;;1.90;97.02
79331;BME280;68797;49.782;19.054;2024-03-08T01:46:50;97509.34;;;1.87;96.38
79331;BME280;68797;49.782;19.054;2024-03-08T01:49:21;97509.38;;;1.90;98.58
79331;BME280;68797;49.782;19.054;2024-03-08T01:51:48;97505.84;;;1.88;98.12
79331;BME280;68797;49.782;19.054;2024-03-08T01:54:18;97503.22;;;1.83;98.40
79331;BME280;68797;49.782;19.054;2024-03-08T01:56:47;97504.16;;;1.93;98.53
79331;BME280;68797;49.782;19.054;2024-03-08T01:59:17;97501.53;;;1.94;97.49
79331;BME280;68797;49.782;19.054;2024-03-08T02:01:43;97490.13;;;1.82;98.56
79331;BME280;68797;49.782;19.054;2024-03-08T02:04:12;97496.25;;;1.85;96.94
79331;BME280;68797;49.782;19.054;2024-03-08T02:06:42;97487.53;;;1.85;97.50
79331;BME280;68797;49.782;19.054;2024-03-08T02:09:14;97491.00;;;1.81;97.68
79331;BME280;68797;49.782;19.054;2024-03-08T02:11:57;97491.88;;;1.80;97.17
79331;BME280;68797;49.782;19.054;2024-03-08T02:14:26;97486.66;;;1.81;98.09
79331;BME280;68797;49.782;19.054;2024-03-08T02:16:55;97493.63;;;1.78;97.51
79331;BME280;68797;49.782;19.054;2024-03-08T02:19:24;97487.53;;;1.86;96.94
79331;BME280;68797;49.782;19.054;2024-03-08T02:22:12;97479.66;;;1.79;96.69
79331;BME280;68797;49.782;19.054;2024-03-08T02:24:41;97474.38;;;1.69;96.14
79331;BME280;68797;49.782;19.054;2024-03-08T02:27:12;97481.38;;;1.73;93.55
79331;BME280;68797;49.782;19.054;2024-03-08T02:29:40;97492.69;;;1.71;94.95
79331;BME280;68797;49.782;19.054;2024-03-08T02:32:09;97480.47;;;1.71;96.52
79331;BME280;68797;49.782;19.054;2024-03-08T02:34:37;97473.44;;;1.58;94.95
79331;BME280;68797;49.782;19.054;2024-03-08T02:37:17;97473.44;;;1.58;96.83
79331;BME280;68797;49.782;19.054;2024-03-08T02:39:43;97471.63;;;1.54;97.77
79331;BME280;68797;49.782;19.054;2024-03-08T02:42:14;97476.03;;;1.60;97.59
79331;BME280;68797;49.782;19.054;2024-03-08T02:44:45;97470.75;;;1.54;95.38
79331;BME280;68797;49.782;19.054;2024-03-08T02:47:12;97484.75;;;1.59;94.92
79331;BME280;68797;49.782;19.054;2024-03-08T02:49:38;97474.22;;;1.47;94.60
79331;BME280;68797;49.782;19.054;2024-03-08T02:52:05;97473.34;;;1.49;94.11
79331;BME280;68797;49.782;19.054;2024-03-08T02:54:34;97463.78;;;1.51;94.55
79331;BME280;68797;49.782;19.054;2024-03-08T02:57:04;97480.41;;;1.56;94.60
79331;BME280;68797;49.782;19.054;2024-03-08T02:59:34;97478.59;;;1.52;93.92
79331;BME280;68797;49.782;19.054;2024-03-08T03:02:10;97468.06;;;1.38;94.06
79331;BME280;68797;49.782;19.054;2024-03-08T03:04:41;97475.97;;;1.48;96.68
79331;BME280;68797;49.782;19.054;2024-03-08T03:07:08;97464.66;;;1.52;96.11
79331;BME280;68797;49.782;19.054;2024-03-08T03:09:37;97473.44;;;1.58;95.97
79331;BME280;68797;49.782;19.054;2024-03-08T03:12:05;97474.28;;;1.56;94.92
79331;BME280;68797;49.782;19.054;2024-03-08T03:14:36;97476.91;;;1.57;96.81
79331;BME280;68797;49.782;19.054;2024-03-08T03:17:07;97469.00;;;1.53;95.01
79331;BME280;68797;49.782;19.054;2024-03-08T03:19:36;97469.00;;;1.50;94.80
79331;BME280;68797;49.782;19.054;2024-03-08T03:22:03;97472.47;;;1.45;96.82
79331;BME280;68797;49.782;19.054;2024-03-08T03:24:33;97463.78;;;1.48;95.72
79331;BME280;68797;49.782;19.054;2024-03-08T03:27:01;97461.09;;;1.42;96.26
79331;BME280;68797;49.782;19.054;2024-03-08T03:29:43;97462.91;;;1.49;96.22
79331;BME280;68797;49.782;19.054;2024-03-08T03:32:16;97471.69;;;1.56;96.30
79331;BME280;68797;49.782;19.054;2024-03-08T03:34:45;97466.34;;;1.43;96.39
79331;BME280;68797;49.782;19.054;2024-03-08T03:37:14;97459.34;;;1.42;95.82
79331;BME280;68797;49.782;19.054;2024-03-08T03:39:41;97475.06;;;1.44;96.23
79331;BME280;68797;49.782;19.054;2024-03-08T03:42:21;97462.84;;;1.43;95.29
79331;BME280;68797;49.782;19.054;2024-03-08T03:44:48;97458.50;;;1.43;96.57
79331;BME280;68797;49.782;19.054;2024-03-08T03:47:18;97458.47;;;1.39;96.76
79331;BME280;68797;49.782;19.054;2024-03-08T03:49:47;97462.91;;;1.51;97.24
79331;BME280;68797;49.782;19.054;2024-03-08T03:52:17;97467.25;;;1.50;96.65
79331;BME280;68797;49.782;19.054;2024-03-08T03:54:44;97463.78;;;1.54;97.11
79331;BME280;68797;49.782;19.054;2024-03-08T03:57:15;97461.97;;;1.41;94.75
79331;BME280;68797;49.782;19.054;2024-03-08T03:59:47;97465.47;;;1.43;95.52
79331;BME280;68797;49.782;19.054;2024-03-08T04:02:15;97470.72;;;1.46;95.98
79331;BME280;68797;49.782;19.054;2024-03-08T04:04:42;97473.34;;;1.48;94.73
79331;BME280;68797;49.782;19.054;2024-03-08T04:07:10;97470.72;;;1.46;95.70
79331;BME280;68797;49.782;19.054;2024-03-08T04:09:38;97467.16;;;1.36;96.43
79331;BME280;68797;49.782;19.054;2024-03-08T04:12:06;97463.72;;;1.42;96.13
79331;BME280;68797;49.782;19.054;2024-03-08T04:14:35;97454.13;;;1.39;95.36
79331;BME280;68797;49.782;19.054;2024-03-08T04:17:14;97458.47;;;1.40;97.10
79331;BME280;68797;49.782;19.054;2024-03-08T04:19:40;97456.75;;;1.42;96.79
79331;BME280;68797;49.782;19.054;2024-03-08T04:22:06;97462.81;;;1.37;95.56
79331;BME280;68797;49.782;19.054;2024-03-08T04:24:34;97462.03;;;1.50;95.74
79331;BME280;68797;49.782;19.054;2024-03-08T04:27:02;97451.56;;;1.47;94.67
79331;BME280;68797;49.782;19.054;2024-03-08T04:29:28;97458.56;;;1.51;94.43
79331;BME280;68797;49.782;19.054;2024-03-08T04:31:55;97452.47;;;1.52;95.00
79331;BME280;68797;49.782;19.054;2024-03-08T04:34:22;97449.75;;;1.40;95.27
79331;BME280;68797;49.782;19.054;2024-03-08T04:36:51;97461.16;;;1.47;94.46
79331;BME280;68797;49.782;19.054;2024-03-08T04:39:20;97462.91;;;1.51;95.66
79331;BME280;68797;49.782;19.054;2024-03-08T04:41:49;97455.91;;;1.47;94.79
79331;BME280;68797;49.782;19.054;2024-03-08T04:44:17;97449.81;;;1.46;96.57
79331;BME280;68797;49.782;19.054;2024-03-08T04:46:48;97460.31;;;1.55;97.59
79331;BME280;68797;49.782;19.054;2024-03-08T04:49:17;97461.16;;;1.50;95.79
79331;BME280;68797;49.782;19.054;2024-03-08T04:51:48;97453.25;;;1.40;96.00
79331;BME280;68797;49.782;19.054;2024-03-08T04:54:16;97457.66;;;1.48;95.29
79331;BME280;68797;49.782;19.054;2024-03-08T04:56:47;97465.53;;;1.51;96.41
79331;BME280;68797;49.782;19.054;2024-03-08T04:59:13;97462.91;;;1.49;97.15
79331;BME280;68797;49.782;19.054;2024-03-08T05:01:43;97460.31;;;1.54;97.07
79331;BME280;68797;49.782;19.054;2024-03-08T05:04:10;97470.81;;;1.57;96.84
79331;BME280;68797;49.782;19.054;2024-03-08T05:06:39;97465.53;;;1.52;96.36
79331;BME280;68797;49.782;19.054;2024-03-08T05:09:06;97465.53;;;1.49;97.09
79331;BME280;68797;49.782;19.054;2024-03-08T05:11:42;97466.38;;;1.50;96.51
79331;BME280;68797;49.782;19.054;2024-03-08T05:14:11;97473.38;;;1.55;95.72
79331;BME280;68797;49.782;19.054;2024-03-08T05:16:56;97467.28;;;1.55;97.38
79331;BME280;68797;49.782;19.054;2024-03-08T05:19:25;97468.19;;;1.57;96.35
79331;BME280;68797;49.782;19.054;2024-03-08T05:21:56;97462.13;;;1.62;95.88
79331;BME280;68797;49.782;19.054;2024-03-08T05:24:22;97463.91;;;1.66;95.21
79331;BME280;68797;49.782;19.054;2024-03-08T05:26:58;97461.16;;;1.51;95.56
79331;BME280;68797;49.782;19.054;2024-03-08T05:29:26;97470.81;;;1.60;94.53
79331;BME280;68797;49.782;19.054;2024-03-08T05:31:53;97469.06;;;1.57;96.39
79331;BME280;68797;49.782;19.054;2024-03-08T05:34:22;97468.16;;;1.55;95.56
79331;BME280;68797;49.782;19.054;2024-03-08T05:36:51;97473.44;;;1.57;95.85
79331;BME280;68797;49.782;19.054;2024-03-08T05:39:19;97472.56;;;1.62;96.67
79331;BME280;68797;49.782;19.054;2024-03-08T05:41:56;97467.34;;;1.62;96.19
79331;BME280;68797;49.782;19.054;2024-03-08T05:44:23;97462.09;;;1.59;94.95
79331;BME280;68797;49.782;19.054;2024-03-08T05:47:52;97469.81;;;1.41;95.31
79331;BME280;68797;49.782;19.054;2024-03-08T05:50:21;97470.75;;;1.54;94.47
79331;BME280;68797;49.782;19.054;2024-03-08T05:52:53;97478.72;;;1.67;95.76
79331;BME280;68797;49.782;19.054;2024-03-08T05:55:24;97464.72;;;1.61;95.80
79331;BME280;68797;49.782;19.054;2024-03-08T05:57:52;97481.34;;;1.70;95.11
79331;BME280;68797;49.782;19.054;2024-03-08T06:00:20;97486.56;;;1.67;94.03
79331;BME280;68797;49.782;19.054;2024-03-08T06:02:48;97490.94;;;1.68;94.43
79331;BME280;68797;49.782;19.054;2024-03-08T06:05:17;97479.59;;;1.66;94.49
79331;BME280;68797;49.782;19.054;2024-03-08T06:10:57;97487.41;;;1.63;94.58
79331;BME280;68797;49.782;19.054;2024-03-08T06:13:37;97476.13;;;1.69;95.35
79331;BME280;68797;49.782;19.054;2024-03-08T06:16:10;97484.91;;;1.79;92.91
79331;BME280;68797;49.782;19.054;2024-03-08T06:18:39;97475.25;;;1.73;92.88
79331;BME280;68797;49.782;19.054;2024-03-08T06:21:10;97466.53;;;1.68;92.33
79331;BME280;68797;49.782;19.054;2024-03-08T06:23:40;97484.84;;;1.77;94.31
79331;BME280;68797;49.782;19.054;2024-03-08T06:26:11;97494.44;;;1.77;93.73
79331;BME280;68797;49.782;19.054;2024-03-08T06:28:39;97483.09;;;1.70;94.09
79331;BME280;68797;49.782;19.054;2024-03-08T06:31:06;97475.25;;;1.71;93.67
79331;BME280;68797;49.782;19.054;2024-03-08T06:33:34;97492.75;;;1.80;94.56
79331;BME280;68797;49.782;19.054;2024-03-08T06:36:03;97490.13;;;1.82;95.89
79331;BME280;68797;49.782;19.054;2024-03-08T06:38:31;97489.28;;;1.87;95.19
79331;BME280;68797;49.782;19.054;2024-03-08T06:41:00;97483.19;;;1.87;94.78
79331;BME280;68797;49.782;19.054;2024-03-08T06:43:31;97485.84;;;1.96;94.77
79331;BME280;68797;49.782;19.054;2024-03-08T06:46:04;97475.31;;;1.87;94.14
79331;BME280;68797;49.782;19.054;2024-03-08T06:48:32;97463.16;;;1.90;93.37
79331;BME280;68797;49.782;19.054;2024-03-08T06:51:01;97475.44;;;2.02;94.95
79331;BME280;68797;49.782;19.054;2024-03-08T06:53:32;97465.88;;;2.12;94.03
79331;BME280;68797;49.782;19.054;2024-03-08T06:56:03;97478.97;;;2.19;94.10
79331;BME280;68797;49.782;19.054;2024-03-08T06:58:31;97473.78;;;2.22;92.30
79331;BME280;68797;49.782;19.054;2024-03-08T07:01:00;97474.63;;;2.21;93.99
79331;BME280;68797;49.782;19.054;2024-03-08T07:03:31;97471.13;;;2.21;93.28
79331;BME280;68797;49.782;19.054;2024-03-08T07:06:00;97479.03;;;2.24;92.78
79331;BME280;68797;49.782;19.054;2024-03-08T07:08:28;97476.41;;;2.27;93.19
79331;BME280;68797;49.782;19.054;2024-03-08T07:10:59;97472.03;;;2.24;92.04
79331;BME280;68797;49.782;19.054;2024-03-08T07:13:26;97479.94;;;2.37;93.85
79331;BME280;68797;49.782;19.054;2024-03-08T07:15:56;97480.81;;;2.40;91.17
79331;BME280;68797;49.782;19.054;2024-03-08T07:18:26;97475.59;;;2.43;90.59
79331;BME280;68797;49.782;19.054;2024-03-08T07:20:55;97475.59;;;2.43;90.36
79331;BME280;68797;49.782;19.054;2024-03-08T07:23:22;97464.19;;;2.32;92.63
79331;BME280;68797;49.782;19.054;2024-03-08T07:26:07;97472.09;;;2.35;94.73
79331;BME280;68797;49.782;19.054;2024-03-08T07:28:34;97470.34;;;2.43;92.65
79331;BME280;68797;49.782;19.054;2024-03-08T07:31:02;97470.38;;;2.51;92.11
79331;BME280;68797;49.782;19.054;2024-03-08T07:33:47;97469.47;;;2.43;92.89
79331;BME280;68797;49.782;19.054;2024-03-08T07:36:14;97462.53;;;2.49;93.01
79331;BME280;68797;49.782;19.054;2024-03-08T07:38:45;97473.00;;;2.54;89.93
79331;BME280;68797;49.782;19.054;2024-03-08T07:41:15;97467.78;;;2.60;91.28
79331;BME280;68797;49.782;19.054;2024-03-08T07:43:43;97474.78;;;2.64;89.84
79331;BME280;68797;49.782;19.054;2024-03-08T07:46:10;97474.78;;;2.66;89.93
79331;BME280;68797;49.782;19.054;2024-03-08T07:48:37;97470.41;;;2.65;92.41
79331;BME280;68797;49.782;19.054;2024-03-08T07:51:07;97476.50;;;2.48;91.06
79331;BME280;68797;49.782;19.054;2024-03-08T07:53:37;97470.41;;;2.58;91.34
79331;BME280;68797;49.782;19.054;2024-03-08T07:56:05;97473.94;;;2.67;91.59
79331;BME280;68797;49.782;19.054;2024-03-08T07:58:31;97454.75;;;2.78;94.25
79331;BME280;68797;49.782;19.054;2024-03-08T08:01:00;97471.38;;;3.06;92.89
79331;BME280;68797;49.782;19.054;2024-03-08T08:03:27;97475.75;;;3.12;90.64
79331;BME280;68797;49.782;19.054;2024-03-08T08:05:57;97464.34;;;2.87;91.01
79331;BME280;68797;49.782;19.054;2024-03-08T08:08:24;97469.59;;;2.87;91.63
79331;BME280;68797;49.782;19.054;2024-03-08T08:10:56;97467.88;;;3.03;90.42
79331;BME280;68797;49.782;19.054;2024-03-08T08:13:23;97474.00;;;3.11;88.42
79331;BME280;68797;49.782;19.054;2024-03-08T08:15:51;97477.47;;;3.08;88.09
79331;BME280;68797;49.782;19.054;2024-03-08T08:18:20;97457.38;;;3.09;88.76
79331;BME280;68797;49.782;19.054;2024-03-08T08:20:55;97462.66;;;3.13;89.11
79331;BME280;68797;49.782;19.054;2024-03-08T08:23:26;97467.84;;;2.98;87.04
79331;BME280;68797;49.782;19.054;2024-03-08T08:25:55;97471.34;;;3.09;88.54
79331;BME280;68797;49.782;19.054;2024-03-08T08:28:30;97470.50;;;3.06;89.04
79331;BME280;68797;49.782;19.054;2024-03-08T08:30:58;97466.13;;;3.18;89.64
79331;BME280;68797;49.782;19.054;2024-03-08T08:33:32;97473.13;;;3.39;89.05
79331;BME280;68797;49.782;19.054;2024-03-08T08:36:11;97480.13;;;3.34;88.07
79331;BME280;68797;49.782;19.054;2024-03-08T08:38:45;97463.50;;;3.31;87.54
79331;BME280;68797;49.782;19.054;2024-03-08T08:41:17;97480.13;;;3.39;86.20
79331;BME280;68797;49.782;19.054;2024-03-08T08:43:46;97483.63;;;3.39;86.91
79331;BME280;68797;49.782;19.054;2024-03-08T08:46:13;97477.44;;;2.82;87.30
79331;BME280;68797;49.782;19.054;2024-03-08T08:48:46;97480.13;;;3.11;88.35
79331;BME280;68797;49.782;19.054;2024-03-08T08:51:17;97483.63;;;3.29;89.10
79331;BME280;68797;49.782;19.054;2024-03-08T08:53:44;97482.72;;;3.51;89.06
79331;BME280;68797;49.782;19.054;2024-03-08T08:56:18;97480.09;;;3.60;87.16
79331;BME280;68797;49.782;19.054;2024-03-08T08:58:45;97485.34;;;3.65;86.14
79331;BME280;68797;49.782;19.054;2024-03-08T09:01:14;97481.00;;;3.56;87.25
79331;BME280;68797;49.782;19.054;2024-03-08T09:03:43;97469.59;;;3.71;85.86
79331;BME280;68797;49.782;19.054;2024-03-08T09:06:15;97468.72;;;3.73;87.14
79331;BME280;68797;49.782;19.054;2024-03-08T09:08:43;97473.06;;;3.82;88.02
79331;BME280;68797;49.782;19.054;2024-03-08T09:11:13;97466.97;;;3.80;86.06
79331;BME280;68797;49.782;19.054;2024-03-08T09:13:44;97473.94;;;3.93;86.48
79331;BME280;68797;49.782;19.054;2024-03-08T09:16:15;97473.09;;;3.79;85.06
79331;BME280;68797;49.782;19.054;2024-03-08T09:18:55;97469.59;;;3.71;86.01
79331;BME280;68797;49.782;19.054;2024-03-08T09:21:23;97477.47;;;3.80;86.48
79331;BME280;68797;49.782;19.054;2024-03-08T09:23:53;97469.53;;;3.95;86.33
79331;BME280;68797;49.782;19.054;2024-03-08T09:26:22;97466.91;;;4.11;84.06
79331;BME280;68797;49.782;19.054;2024-03-08T09:28:50;97473.00;;;4.13;85.13
79331;BME280;68797;49.782;19.054;2024-03-08T09:31:19;97459.94;;;3.87;86.33
79331;BME280;68797;49.782;19.054;2024-03-08T09:33:47;97468.69;;;3.90;85.57
79331;BME280;68797;49.782;19.054;2024-03-08T09:36:14;97466.06;;;3.99;84.44
79331;BME280;68797;49.782;19.054;2024-03-08T09:38:46;97465.16;;;4.02;84.13
79331;BME280;68797;49.782;19.054;2024-03-08T09:41:15;97459.03;;;4.04;85.33
79331;BME280;68797;49.782;19.054;2024-03-08T09:43:43;97461.72;;;3.77;84.30
79331;BME280;68797;49.782;19.054;2024-03-08T09:46:16;97465.13;;;4.06;86.10
79331;BME280;68797;49.782;19.054;2024-03-08T09:48:56;97470.34;;;4.20;84.74
79331;BME280;68797;49.782;19.054;2024-03-08T09:52:01;97447.59;;;4.24;84.11
79331;BME280;68797;49.782;19.054;2024-03-08T09:54:32;97457.13;;;4.40;85.21
79331;BME280;68797;49.782;19.054;2024-03-08T09:57:08;97461.59;;;4.24;84.44
79331;BME280;68797;49.782;19.054;2024-03-08T09:59:39;97460.78;;;4.01;84.78
79331;BME280;68797;49.782;19.054;2024-03-08T10:02:18;97454.63;;;4.05;88.63
79331;BME280;68797;49.782;19.054;2024-03-08T10:04:46;97464.19;;;4.33;87.31
79331;BME280;68797;49.782;19.054;2024-03-08T10:07:13;97464.00;;;4.69;83.49
79331;BME280;68797;49.782;19.054;2024-03-08T10:09:41;97458.69;;;4.79;83.40
79331;BME280;68797;49.782;19.054;2024-03-08T10:12:16;97464.41;;;5.36;82.56
79331;BME280;68797;49.782;19.054;2024-03-08T10:14:43;97456.31;;;5.59;83.02
79331;BME280;68797;49.782;19.054;2024-03-08T10:17:12;97461.78;;;5.38;81.63
79331;BME280;68797;49.782;19.054;2024-03-08T10:19:49;97458.25;;;5.37;78.86
79331;BME280;68797;49.782;19.054;2024-03-08T10:22:20;97466.28;;;5.22;81.49
79331;BME280;68797;49.782;19.054;2024-03-08T10:24:49;97462.00;;;5.06;84.64
79331;BME280;68797;49.782;19.054;2024-03-08T10:27:17;97452.53;;;4.80;82.90
79331;BME280;68797;49.782;19.054;2024-03-08T10:29:49;97454.44;;;4.54;84.24
79331;BME280;68797;49.782;19.054;2024-03-08T10:32:23;97437.03;;;4.30;87.01
79331;BME280;68797;49.782;19.054;2024-03-08T10:34:51;97451.88;;;4.42;89.08
79331;BME280;68797;49.782;19.054;2024-03-08T10:37:23;97455.38;;;4.41;85.47
79331;BME280;68797;49.782;19.054;2024-03-08T10:40:19;97446.56;;;4.55;83.69
79331;BME280;68797;49.782;19.054;2024-03-08T10:42:56;97450.84;;;4.70;84.98
79331;BME280;68797;49.782;19.054;2024-03-08T10:45:37;97447.25;;;4.83;85.73
79331;BME280;68797;49.782;19.054;2024-03-08T10:48:36;97444.59;;;4.86;85.95
79331;BME280;68797;49.782;19.054;2024-03-08T10:51:13;97446.38;;;4.89;86.47
79331;BME280;68797;49.782;19.054;2024-03-08T10:53:47;97435.03;;;4.78;82.40
79331;BME280;68797;49.782;19.054;2024-03-08T10:56:17;97429.66;;;4.99;87.38
79331;BME280;68797;49.782;19.054;2024-03-08T10:58:47;97442.78;;;4.97;84.71
79331;BME280;68797;49.782;19.054;2024-03-08T11:01:13;97431.50;;;4.82;86.20
79331;BME280;68797;49.782;19.054;2024-03-08T11:03:48;97433.13;;;5.01;84.27
79331;BME280;68797;49.782;19.054;2024-03-08T11:09:11;97420.75;;;5.15;84.84
79331;BME280;68797;49.782;19.054;2024-03-08T11:12:23;97424.19;;;5.20;86.37
79331;BME280;68797;49.782;19.054;2024-03-08T11:14:59;97424.31;;;5.05;84.30
79331;BME280;68797;49.782;19.054;2024-03-08T11:17:44;97421.66;;;5.11;83.95
79331;BME280;68797;49.782;19.054;2024-03-08T11:20:19;97426.00;;;5.14;83.86
79331;BME280;68797;49.782;19.054;2024-03-08T11:23:03;97413.72;;;5.16;82.92
79331;BME280;68797;49.782;19.054;2024-03-08T11:25:40;97413.00;;;4.95;86.35
79331;BME280;68797;49.782;19.054;2024-03-08T11:28:22;97406.91;;;4.90;86.48
79331;BME280;68797;49.782;19.054;2024-03-08T11:33:31;97413.66;;;5.23;84.81
79331;BME280;68797;49.782;19.054;2024-03-08T11:36:27;97402.31;;;5.17;85.32
79331;BME280;68797;49.782;19.054;2024-03-08T11:38:59;97383.91;;;5.15;85.75
79331;BME280;68797;49.782;19.054;2024-03-08T11:41:28;97408.38;;;5.25;83.54
79331;BME280;68797;49.782;19.054;2024-03-08T11:44:04;97401.19;;;5.45;84.42
79331;BME280;68797;49.782;19.054;2024-03-08T11:46:36;97404.81;;;5.31;84.30
79331;BME280;68797;49.782;19.054;2024-03-08T11:49:05;97397.88;;;5.25;85.95
79331;BME280;68797;49.782;19.054;2024-03-08T11:51:36;97397.13;;;5.06;84.23
79331;BME280;68797;49.782;19.054;2024-03-08T11:54:12;97380.47;;;5.07;85.80
79331;BME280;68797;49.782;19.054;2024-03-08T11:56:44;97382.25;;;5.05;84.26
79331;BME280;68797;49.782;19.054;2024-03-08T11:59:14;97379.50;;;5.17;84.27
79331;BME280;68797;49.782;19.054;2024-03-08T12:01:43;97375.09;;;5.24;83.20
79331;BME280;68797;49.782;19.054;2024-03-08T12:04:13;97372.53;;;5.13;83.68
79331;BME280;68797;49.782;19.054;2024-03-08T12:09:35;97372.38;;;5.33;84.27
79331;BME280;68797;49.782;19.054;2024-03-08T12:12:04;97362.72;;;5.32;86.09
79331;BME280;68797;49.782;19.054;2024-03-08T12:14:34;97361.03;;;5.25;86.63
79331;BME280;68797;49.782;19.054;2024-03-08T12:17:02;97362.63;;;5.40;86.38
79331;BME280;68797;49.782;19.054;2024-03-08T12:19:32;97360.00;;;5.40;84.94
79331;BME280;68797;49.782;19.054;2024-03-08T12:22:10;97365.47;;;5.21;82.88
79331;BME280;68797;49.782;19.054;2024-03-08T12:24:37;97351.25;;;5.38;82.83
79331;BME280;68797;49.782;19.054;2024-03-08T12:27:20;97356.50;;;5.39;83.81
79331;BME280;68797;49.782;19.054;2024-03-08T12:29:47;97356.44;;;5.47;83.47
79331;BME280;68797;49.782;19.054;2024-03-08T12:32:15;97345.84;;;5.51;85.04
79331;BME280;68797;49.782;19.054;2024-03-08T12:34:43;97355.00;;;5.14;85.51
79331;BME280;68797;49.782;19.054;2024-03-08T12:37:19;97340.22;;;5.01;86.29
79331;BME280;68797;49.782;19.054;2024-03-08T12:39:46;97332.31;;;5.02;89.65
79331;BME280;68797;49.782;19.054;2024-03-08T12:42:15;97334.84;;;5.13;87.95
79331;BME280;68797;49.782;19.054;2024-03-08T12:44:41;97343.66;;;5.07;88.15
79331;BME280;68797;49.782;19.054;2024-03-08T12:47:11;97341.84;;;5.15;88.95
79331;BME280;68797;49.782;19.054;2024-03-08T12:49:38;97347.34;;;4.86;88.05
79331;BME280;68797;49.782;19.054;2024-03-08T12:52:10;97335.16;;;4.78;87.99
79331;BME280;68797;49.782;19.054;2024-03-08T12:54:36;97334.97;;;4.97;87.35
79331;BME280;68797;49.782;19.054;2024-03-08T12:57:05;97333.09;;;5.12;87.40
79331;BME280;68797;49.782;19.054;2024-03-08T12:59:33;97327.72;;;5.24;89.45
79331;BME280;68797;49.782;19.054;2024-03-08T13:01:59;97319.75;;;5.30;89.87
79331;BME280;68797;49.782;19.054;2024-03-08T13:04:34;97322.63;;;5.07;87.44
79331;BME280;68797;49.782;19.054;2024-03-08T13:07:05;97314.72;;;5.10;86.71
79331;BME280;68797;49.782;19.054;2024-03-08T13:09:36;97324.22;;;5.25;86.54
79331;BME280;68797;49.782;19.054;2024-03-08T13:12:12;97312.88;;;5.17;86.18
79331;BME280;68797;49.782;19.054;2024-03-08T13:14:44;97305.81;;;5.20;87.26
79331;BME280;68797;49.782;19.054;2024-03-08T13:17:10;97317.34;;;5.12;87.97
79331;BME280;68797;49.782;19.054;2024-03-08T13:19:38;97307.81;;;4.97;88.21
79331;BME280;68797;49.782;19.054;2024-03-08T13:22:10;97304.34;;;4.93;90.41
79331;BME280;68797;49.782;19.054;2024-03-08T13:24:43;97317.53;;;4.86;88.12
79331;BME280;68797;49.782;19.054;2024-03-08T13:27:22;97316.69;;;4.88;88.40
79331;BME280;68797;49.782;19.054;2024-03-08T13:29:51;97303.59;;;4.81;89.29
79331;BME280;68797;49.782;19.054;2024-03-08T13:32:18;97308.00;;;4.77;90.58